Time;durP1;ratioP1;P1;durP2;ratioP2;P2;SDS_P1;SDS_P2;PMS_P1;PMS_P2;Temp;Humidity;BMP_temperature;BMP_pressure;BME280_temperature;BME280_humidity;BME280_pressure;Samples;Min_cycle;Max_cycle;Signal;HPM_P1;HPM_P2
2021/12/23 00:01:53;;;;;;;33.43;16.00;;;-2.20;99.90;;;;;;5037841;28;20689;-46
2021/12/23 00:04:19;;;;;;;33.90;15.63;;;-2.20;99.90;;;;;;5025068;28;20234;-48
2021/12/23 00:06:46;;;;;;;35.97;16.93;;;-2.20;99.90;;;;;;5024803;28;20199;-45
2021/12/23 00:09:13;;;;;;;34.97;15.57;;;-2.30;99.90;;;;;;5014507;28;20200;-49
2021/12/23 00:11:40;;;;;;;34.83;14.67;;;-2.30;99.90;;;;;;5030330;28;20230;-46
2021/12/23 00:14:09;;;;;;;33.27;15.50;;;-2.30;99.90;;;;;;5028174;28;20206;-49
2021/12/23 00:16:45;;;;;;;32.77;15.60;;;-2.30;99.90;;;;;;5022806;28;20274;-46
2021/12/23 00:19:23;;;;;;;37.67;15.17;;;-2.30;99.90;;;;;;5039553;28;20203;-52
2021/12/23 00:24:35;;;;;;;30.47;15.10;;;-2.30;99.90;;;;;;5026193;28;20210;-48
2021/12/23 00:27:02;;;;;;;35.60;15.97;;;-2.30;99.90;;;;;;5027398;28;20215;-45
2021/12/23 00:29:29;;;;;;;34.33;15.63;;;-2.30;99.90;;;;;;5027100;28;20222;-50
2021/12/23 00:31:56;;;;;;;30.60;15.90;;;-2.20;99.90;;;;;;5026516;28;20575;-46
2021/12/23 00:34:24;;;;;;;31.33;15.33;;;-2.20;99.90;;;;;;5024158;28;20196;-48
2021/12/23 00:36:53;;;;;;;31.67;15.30;;;-2.20;99.90;;;;;;5025381;28;20342;-47
2021/12/23 00:39:19;;;;;;;32.07;14.87;;;-2.30;99.90;;;;;;5018277;28;20231;-50
2021/12/23 00:41:46;;;;;;;38.63;16.37;;;-2.30;99.90;;;;;;5028227;28;20222;-48
2021/12/23 00:44:13;;;;;;;35.30;15.63;;;-2.20;99.90;;;;;;5027522;28;20222;-50
2021/12/23 00:46:40;;;;;;;32.03;15.07;;;-2.20;99.90;;;;;;5042168;28;20202;-50
2021/12/23 00:49:06;;;;;;;33.07;15.73;;;-2.20;99.90;;;;;;5045346;28;20199;-46
2021/12/23 00:51:35;;;;;;;32.07;15.57;;;-2.20;99.90;;;;;;5041176;28;20239;-51
2021/12/23 00:54:05;;;;;;;32.63;14.73;;;-2.20;99.90;;;;;;5045239;28;20211;-46
2021/12/23 00:56:33;;;;;;;31.43;13.93;;;-2.20;99.90;;;;;;5021864;28;20204;-45
2021/12/23 00:59:00;;;;;;;30.63;14.13;;;-2.20;99.90;;;;;;5026514;28;20208;-45
2021/12/23 01:01:27;;;;;;;31.90;16.30;;;-2.20;99.90;;;;;;5031593;28;20220;-50
2021/12/23 01:03:53;;;;;;;33.07;14.60;;;-2.20;99.90;;;;;;5025011;28;20223;-46
2021/12/23 01:06:20;;;;;;;33.73;15.67;;;-2.20;99.90;;;;;;5023566;28;20200;-51
2021/12/23 01:08:48;;;;;;;31.20;15.83;;;-2.20;99.90;;;;;;5024300;28;20194;-47
2021/12/23 01:11:15;;;;;;;37.00;15.73;;;-2.20;99.90;;;;;;5014000;28;20223;-47
2021/12/23 01:13:48;;;;;;;31.00;15.33;;;-2.20;99.90;;;;;;5028148;28;20203;-47
2021/12/23 01:16:25;;;;;;;31.43;15.17;;;-2.20;99.90;;;;;;5031560;28;20403;-49
2021/12/23 01:18:54;;;;;;;29.03;14.60;;;-2.20;99.90;;;;;;5044216;28;20217;-46
2021/12/23 01:21:21;;;;;;;35.10;15.77;;;-2.20;99.90;;;;;;5042528;28;20215;-47
2021/12/23 01:23:52;;;;;;;29.40;14.00;;;-2.20;99.90;;;;;;5025406;28;20199;-47
2021/12/23 01:26:22;;;;;;;30.17;15.00;;;-2.20;99.90;;;;;;5017468;28;20214;-48
2021/12/23 01:28:52;;;;;;;29.33;14.50;;;-2.10;99.90;;;;;;5031432;28;20195;-45
2021/12/23 01:31:20;;;;;;;32.53;14.50;;;-2.10;99.90;;;;;;5019803;28;21004;-48
2021/12/23 01:33:47;;;;;;;30.60;14.10;;;-2.10;99.90;;;;;;5023811;28;20200;-49
2021/12/23 01:36:14;;;;;;;33.47;16.10;;;-2.10;99.90;;;;;;5034441;28;20194;-48
2021/12/23 01:38:41;;;;;;;34.13;14.17;;;-2.20;99.90;;;;;;5025296;28;20298;-47
2021/12/23 01:41:09;;;;;;;28.57;14.07;;;-2.10;99.90;;;;;;5028532;28;20252;-46
2021/12/23 01:43:36;;;;;;;31.53;14.47;;;-2.10;99.90;;;;;;5013286;28;20200;-49
2021/12/23 01:46:03;;;;;;;32.80;15.10;;;-2.10;99.90;;;;;;5030007;28;20695;-48
2021/12/23 01:48:30;;;;;;;29.10;14.47;;;-2.00;99.90;;;;;;5021171;28;20200;-46
2021/12/23 01:50:57;;;;;;;27.00;13.23;;;-2.00;99.90;;;;;;5025003;28;20220;-47
2021/12/23 01:53:24;;;;;;;30.87;13.80;;;-2.00;99.90;;;;;;5032257;28;20219;-48
2021/12/23 01:55:50;;;;;;;26.43;12.90;;;-2.00;99.90;;;;;;5028657;28;20196;-48
2021/12/23 01:58:19;;;;;;;30.33;14.80;;;-2.00;99.90;;;;;;5016677;28;20219;-48
2021/12/23 02:00:48;;;;;;;29.30;14.50;;;-2.00;99.90;;;;;;5026872;28;20290;-48
2021/12/23 02:03:15;;;;;;;26.47;13.63;;;-2.00;99.90;;;;;;5019725;28;20208;-51
2021/12/23 02:05:42;;;;;;;29.43;14.17;;;-2.00;99.90;;;;;;5022067;28;20200;-47
2021/12/23 02:08:09;;;;;;;28.10;13.53;;;-1.90;99.90;;;;;;5034333;28;20279;-46
2021/12/23 02:10:37;;;;;;;25.03;13.00;;;-2.00;99.90;;;;;;5023233;28;20215;-50
2021/12/23 02:13:04;;;;;;;25.60;13.50;;;-2.00;99.90;;;;;;5016400;28;20215;-45
2021/12/23 02:15:32;;;;;;;25.63;13.47;;;-1.90;99.90;;;;;;5022062;28;20204;-46
2021/12/23 02:17:59;;;;;;;30.50;13.73;;;-1.90;99.90;;;;;;5027095;28;20211;-48
2021/12/23 02:20:30;;;;;;;25.50;14.20;;;-1.90;99.90;;;;;;5020986;28;20222;-49
2021/12/23 02:22:58;;;;;;;23.73;12.20;;;-1.90;99.90;;;;;;5024516;28;20208;-46
2021/12/23 02:25:24;;;;;;;25.50;14.13;;;-1.90;99.90;;;;;;5026792;28;20272;-50
2021/12/23 02:27:53;;;;;;;25.67;13.23;;;-1.90;99.90;;;;;;5030242;28;20653;-46
2021/12/23 02:30:23;;;;;;;25.07;12.57;;;-1.90;99.90;;;;;;5021256;28;20290;-47
2021/12/23 02:32:50;;;;;;;27.20;13.67;;;-1.90;99.90;;;;;;5025046;28;20231;-46
2021/12/23 02:35:19;;;;;;;25.57;13.07;;;-1.80;99.90;;;;;;5028553;28;20204;-49
2021/12/23 02:37:48;;;;;;;24.90;13.70;;;-1.80;99.90;;;;;;5022225;28;20203;-51
2021/12/23 02:40:25;;;;;;;27.37;12.70;;;-1.80;99.90;;;;;;5023552;28;20227;-52
2021/12/23 02:42:52;;;;;;;25.10;13.43;;;-1.80;99.90;;;;;;5038066;28;20190;-48
2021/12/23 02:45:19;;;;;;;27.70;12.80;;;-1.80;99.90;;;;;;5020487;28;20216;-49
2021/12/23 02:47:46;;;;;;;27.87;13.07;;;-1.80;99.90;;;;;;5020639;28;20215;-46
2021/12/23 02:50:12;;;;;;;31.50;13.27;;;-1.80;99.90;;;;;;5026802;28;20206;-50
2021/12/23 02:52:39;;;;;;;22.43;12.43;;;-1.80;99.90;;;;;;5020587;28;20223;-52
2021/12/23 02:55:08;;;;;;;24.80;14.03;;;-1.80;99.90;;;;;;5027618;28;20207;-51
2021/12/23 02:57:35;;;;;;;30.47;13.30;;;-1.80;99.90;;;;;;5024465;28;20195;-49
2021/12/23 03:00:02;;;;;;;26.03;13.90;;;-1.80;99.90;;;;;;5024003;28;20196;-50
2021/12/23 03:02:29;;;;;;;24.77;12.67;;;-1.70;99.90;;;;;;5014478;28;20223;-49
2021/12/23 03:04:55;;;;;;;25.90;12.87;;;-1.70;99.90;;;;;;5026856;28;20576;-47
2021/12/23 03:07:22;;;;;;;28.47;13.70;;;-1.80;99.90;;;;;;5021317;28;20226;-48
2021/12/23 03:09:49;;;;;;;25.70;13.10;;;-1.80;99.90;;;;;;5022439;28;20215;-46
2021/12/23 03:12:17;;;;;;;23.80;12.77;;;-1.80;99.90;;;;;;5022266;28;20219;-50
2021/12/23 03:14:44;;;;;;;24.73;13.70;;;-1.80;99.90;;;;;;5021418;28;20200;-46
2021/12/23 03:17:10;;;;;;;22.53;12.70;;;-1.80;99.90;;;;;;5017708;28;20208;-49
2021/12/23 03:19:37;;;;;;;23.53;12.17;;;-1.80;99.90;;;;;;5018895;28;20962;-51
2021/12/23 03:22:04;;;;;;;24.60;12.73;;;-1.80;99.90;;;;;;5036849;28;20226;-50
2021/12/23 03:24:31;;;;;;;24.73;13.50;;;-1.80;99.90;;;;;;5024946;28;20922;-49
2021/12/23 03:26:58;;;;;;;25.80;13.03;;;-1.80;99.90;;;;;;5026643;28;20209;-48
2021/12/23 03:29:26;;;;;;;23.07;11.97;;;-1.80;99.90;;;;;;5020595;28;20197;-51
2021/12/23 03:31:52;;;;;;;25.90;12.63;;;-1.80;99.90;;;;;;5013155;28;20227;-48
2021/12/23 03:34:19;;;;;;;24.97;13.47;;;-1.80;99.90;;;;;;5029522;28;20688;-51
2021/12/23 03:36:45;;;;;;;24.47;12.57;;;-1.80;99.90;;;;;;5020085;28;20195;-47
2021/12/23 03:39:12;;;;;;;23.67;12.43;;;-1.80;99.90;;;;;;5034855;28;20206;-49
2021/12/23 03:41:39;;;;;;;22.40;11.93;;;-1.80;99.90;;;;;;5020038;28;21102;-49
2021/12/23 03:44:06;;;;;;;26.67;13.70;;;-1.80;99.90;;;;;;5023419;28;20200;-46
2021/12/23 03:46:37;;;;;;;27.77;13.97;;;-1.80;99.90;;;;;;5006620;28;20210;-47
2021/12/23 03:49:04;;;;;;;28.20;13.70;;;-1.80;99.90;;;;;;5028153;28;20625;-46
2021/12/23 03:51:30;;;;;;;26.10;13.77;;;-1.80;99.90;;;;;;5025709;28;20322;-46
2021/12/23 03:53:57;;;;;;;20.73;12.23;;;-1.80;99.90;;;;;;5029370;28;20274;-46
2021/12/23 03:56:24;;;;;;;21.87;14.07;;;-1.80;99.90;;;;;;5020550;28;20254;-48
2021/12/23 03:58:51;;;;;;;27.40;12.83;;;-1.70;99.90;;;;;;5022298;28;20680;-51
2021/12/23 04:01:18;;;;;;;30.23;12.90;;;-1.70;99.90;;;;;;5021808;28;20235;-49
2021/12/23 04:03:46;;;;;;;25.87;13.67;;;-1.70;99.90;;;;;;5011817;28;20203;-48
2021/12/23 04:06:13;;;;;;;23.33;11.97;;;-1.70;99.90;;;;;;5029100;28;20211;-47
2021/12/23 04:08:39;;;;;;;25.37;12.87;;;-1.70;99.90;;;;;;5037827;28;20466;-49
2021/12/23 04:11:06;;;;;;;24.63;13.83;;;-1.70;99.90;;;;;;5034376;28;20218;-46
2021/12/23 04:13:32;;;;;;;25.90;13.70;;;-1.70;99.90;;;;;;5019057;28;20243;-47
2021/12/23 04:15:59;;;;;;;25.83;13.13;;;-1.70;99.90;;;;;;5022924;28;20204;-46
2021/12/23 04:18:26;;;;;;;24.43;12.77;;;-1.70;99.90;;;;;;5013681;28;20714;-51
2021/12/23 04:20:54;;;;;;;29.03;12.90;;;-1.70;99.90;;;;;;5030313;28;20234;-46
2021/12/23 04:23:21;;;;;;;25.53;12.63;;;-1.70;99.90;;;;;;5029567;28;20203;-49
2021/12/23 04:25:48;;;;;;;23.17;12.13;;;-1.70;99.90;;;;;;5027302;28;20227;-50
2021/12/23 04:28:15;;;;;;;25.20;12.47;;;-1.70;99.90;;;;;;5027935;28;20204;-52
2021/12/23 04:30:42;;;;;;;26.57;13.37;;;-1.70;99.90;;;;;;5020194;28;20216;-46
2021/12/23 04:33:10;;;;;;;30.50;13.47;;;-1.70;99.90;;;;;;5026071;28;20606;-46
2021/12/23 04:35:37;;;;;;;24.07;12.83;;;-1.70;99.90;;;;;;5011532;28;21077;-45
2021/12/23 04:38:05;;;;;;;22.90;12.77;;;-1.70;99.90;;;;;;5024743;28;20653;-45
2021/12/23 04:40:34;;;;;;;27.13;13.73;;;-1.60;99.90;;;;;;5029119;28;20196;-48
2021/12/23 04:43:01;;;;;;;24.33;13.30;;;-1.60;99.90;;;;;;5032386;28;20196;-47
2021/12/23 04:45:28;;;;;;;25.13;13.13;;;-1.70;99.90;;;;;;5022705;28;20203;-51
2021/12/23 04:47:55;;;;;;;23.07;12.67;;;-1.60;99.90;;;;;;5025846;28;20204;-52
2021/12/23 04:50:22;;;;;;;20.73;12.27;;;-1.70;99.90;;;;;;5017199;28;20222;-51
2021/12/23 04:52:49;;;;;;;23.17;12.23;;;-1.70;99.90;;;;;;5028433;28;20215;-51
2021/12/23 04:55:17;;;;;;;24.93;12.43;;;-1.70;99.90;;;;;;5028439;28;20301;-48
2021/12/23 04:57:43;;;;;;;20.80;11.93;;;-1.70;99.90;;;;;;5042451;28;20203;-49
2021/12/23 05:00:13;;;;;;;23.13;12.87;;;-1.70;99.90;;;;;;5045101;28;20203;-53
2021/12/23 05:02:39;;;;;;;23.93;12.67;;;-1.60;99.90;;;;;;5041815;28;20218;-51
2021/12/23 05:05:07;;;;;;;20.07;11.83;;;-1.60;99.90;;;;;;5029161;28;20207;-48
2021/12/23 05:07:35;;;;;;;23.57;13.43;;;-1.60;99.90;;;;;;5023208;28;20200;-47
2021/12/23 05:10:01;;;;;;;25.60;12.67;;;-1.70;99.90;;;;;;5029647;28;20203;-48
2021/12/23 05:12:29;;;;;;;23.90;12.67;;;-1.60;99.90;;;;;;5041230;28;20234;-50
2021/12/23 05:14:56;;;;;;;22.03;11.70;;;-1.60;99.90;;;;;;5044847;28;20195;-47
2021/12/23 05:17:22;;;;;;;25.10;12.93;;;-1.60;99.90;;;;;;5041996;28;20195;-47
2021/12/23 05:19:49;;;;;;;28.87;13.43;;;-1.60;99.90;;;;;;5043533;28;20211;-47
2021/12/23 05:22:16;;;;;;;27.90;13.23;;;-1.60;99.90;;;;;;5026074;28;20227;-50
2021/12/23 05:24:42;;;;;;;22.33;13.37;;;-1.60;99.90;;;;;;5024033;28;20195;-46
2021/12/23 05:27:09;;;;;;;23.80;12.30;;;-1.60;99.90;;;;;;5025541;28;20219;-47
2021/12/23 05:29:37;;;;;;;26.00;13.13;;;-1.60;99.90;;;;;;5021375;28;20193;-46
2021/12/23 05:32:04;;;;;;;20.60;11.97;;;-1.60;99.90;;;;;;5025539;28;20223;-48
2021/12/23 05:34:31;;;;;;;26.00;13.50;;;-1.50;99.90;;;;;;5022010;28;20245;-46
2021/12/23 05:36:58;;;;;;;25.30;12.77;;;-1.50;99.90;;;;;;5019518;28;20207;-52
2021/12/23 05:39:25;;;;;;;22.67;12.73;;;-1.60;99.90;;;;;;5025831;28;20227;-48
2021/12/23 05:41:51;;;;;;;23.07;13.43;;;-1.50;99.90;;;;;;5024487;28;20221;-51
2021/12/23 05:44:18;;;;;;;22.47;13.37;;;-1.50;99.90;;;;;;5023460;28;20270;-52
2021/12/23 05:46:46;;;;;;;23.97;13.60;;;-1.60;99.90;;;;;;5022891;28;20937;-47
2021/12/23 05:49:13;;;;;;;27.33;13.03;;;-1.60;99.90;;;;;;5024834;28;20585;-53
2021/12/23 05:51:40;;;;;;;25.37;12.50;;;-1.60;99.90;;;;;;5009839;28;20254;-51
2021/12/23 05:54:07;;;;;;;22.90;11.93;;;-1.60;99.90;;;;;;5034746;28;20203;-46
2021/12/23 05:56:34;;;;;;;20.77;12.47;;;-1.70;99.90;;;;;;5019550;28;20299;-47
2021/12/23 05:59:01;;;;;;;23.90;13.40;;;-1.60;99.90;;;;;;5024962;28;20204;-47
2021/12/23 06:01:27;;;;;;;21.27;12.87;;;-1.60;99.90;;;;;;5021677;28;20595;-48
2021/12/23 06:03:55;;;;;;;25.00;12.80;;;-1.60;99.90;;;;;;5024607;28;20204;-47
2021/12/23 06:06:22;;;;;;;23.03;12.17;;;-1.60;99.90;;;;;;5029955;28;20207;-50
2021/12/23 06:08:49;;;;;;;23.53;12.53;;;-1.60;99.90;;;;;;5021428;28;20429;-50
2021/12/23 06:11:16;;;;;;;28.27;13.77;;;-1.60;99.90;;;;;;5020223;28;20228;-50
2021/12/23 06:13:42;;;;;;;22.90;12.97;;;-1.60;99.90;;;;;;5021839;28;20223;-54
2021/12/23 06:16:09;;;;;;;22.37;11.97;;;-1.60;99.90;;;;;;5024496;28;20207;-52
2021/12/23 06:18:36;;;;;;;20.67;11.53;;;-1.50;99.90;;;;;;5020454;28;20207;-48
2021/12/23 06:21:04;;;;;;;23.07;12.73;;;-1.50;99.90;;;;;;5044000;28;20710;-47
2021/12/23 06:23:31;;;;;;;25.93;12.97;;;-1.60;99.90;;;;;;5009817;28;20894;-50
2021/12/23 06:25:58;;;;;;;23.20;12.93;;;-1.50;99.90;;;;;;5025128;28;20213;-47
2021/12/23 06:28:25;;;;;;;24.80;12.97;;;-1.50;99.90;;;;;;5040710;28;20199;-50
2021/12/23 06:30:51;;;;;;;22.83;12.63;;;-1.50;99.90;;;;;;5042663;28;20226;-48
2021/12/23 06:33:18;;;;;;;21.13;12.63;;;-1.50;99.90;;;;;;5041711;28;20226;-50
2021/12/23 06:35:46;;;;;;;27.17;13.57;;;-1.50;99.90;;;;;;5034853;28;20192;-49
2021/12/23 06:38:14;;;;;;;21.47;12.63;;;-1.50;99.90;;;;;;5017789;28;20199;-50
2021/12/23 06:40:41;;;;;;;23.77;11.93;;;-1.50;99.90;;;;;;5023925;28;20308;-48
2021/12/23 06:43:08;;;;;;;25.30;13.23;;;-1.50;99.90;;;;;;5043277;28;20288;-46
2021/12/23 06:45:35;;;;;;;24.10;12.73;;;-1.50;99.90;;;;;;5039065;28;20194;-49
2021/12/23 06:48:02;;;;;;;24.47;12.63;;;-1.50;99.90;;;;;;5043078;28;20701;-49
2021/12/23 06:50:29;;;;;;;25.83;13.67;;;-1.50;99.90;;;;;;5039183;28;20203;-48
2021/12/23 06:52:56;;;;;;;23.23;13.20;;;-1.50;99.90;;;;;;5043090;28;20225;-47
2021/12/23 06:55:24;;;;;;;22.03;12.67;;;-1.50;99.90;;;;;;5011755;28;20231;-49
2021/12/23 06:57:55;;;;;;;20.53;12.27;;;-1.50;99.90;;;;;;5031965;28;20208;-49
2021/12/23 07:00:22;;;;;;;22.93;12.67;;;-1.40;99.90;;;;;;5034233;28;20195;-48
2021/12/23 07:02:49;;;;;;;25.67;14.00;;;-1.40;99.90;;;;;;5021839;28;20921;-46
2021/12/23 07:05:16;;;;;;;26.40;13.50;;;-1.40;99.90;;;;;;5040028;28;20191;-48
2021/12/23 07:07:53;;;;;;;23.07;13.40;;;-1.40;99.90;;;;;;5028267;28;20196;-49
2021/12/23 07:10:21;;;;;;;24.43;12.93;;;-1.40;99.90;;;;;;5015340;28;20214;-50
2021/12/23 07:12:49;;;;;;;26.73;13.37;;;-1.40;99.90;;;;;;5023674;28;20203;-49
2021/12/23 07:15:16;;;;;;;22.73;12.77;;;-1.40;99.90;;;;;;5022608;28;20219;-48
2021/12/23 07:17:42;;;;;;;23.67;12.63;;;-1.30;99.90;;;;;;5020907;28;20196;-52
2021/12/23 07:20:10;;;;;;;23.50;13.70;;;-1.30;99.90;;;;;;5023568;28;20212;-48
2021/12/23 07:22:38;;;;;;;23.30;13.30;;;-1.30;99.90;;;;;;5019901;28;21010;-47
2021/12/23 07:25:06;;;;;;;24.87;13.33;;;-1.30;99.90;;;;;;5023540;28;20687;-47
2021/12/23 07:27:32;;;;;;;23.70;13.73;;;-1.30;99.90;;;;;;5004538;28;20204;-45
2021/12/23 07:30:01;;;;;;;23.23;13.13;;;-1.30;99.90;;;;;;5028547;28;20211;-44
2021/12/23 07:32:28;;;;;;;21.47;13.17;;;-1.20;99.90;;;;;;5019752;28;20722;-46
2021/12/23 07:34:54;;;;;;;24.77;13.67;;;-1.20;99.90;;;;;;5023620;28;20238;-48
2021/12/23 07:37:21;;;;;;;24.87;12.90;;;-1.20;99.90;;;;;;5026314;28;20203;-45
2021/12/23 07:39:48;;;;;;;23.73;12.53;;;-1.20;99.90;;;;;;5025885;28;20196;-44
2021/12/23 07:42:16;;;;;;;27.67;13.77;;;-1.20;99.90;;;;;;5014587;28;20310;-46
2021/12/23 07:44:44;;;;;;;28.50;14.80;;;-1.20;99.90;;;;;;5023199;28;20204;-49
2021/12/23 07:47:13;;;;;;;24.33;13.83;;;-1.20;99.90;;;;;;5022892;28;20580;-45
2021/12/23 07:49:41;;;;;;;23.87;14.10;;;-1.10;99.90;;;;;;5018943;28;20207;-46
2021/12/23 07:52:08;;;;;;;21.33;12.33;;;-1.20;99.90;;;;;;5023163;28;20221;-48
2021/12/23 07:54:35;;;;;;;29.17;14.93;;;-1.10;99.90;;;;;;5018991;28;20218;-45
2021/12/23 07:57:02;;;;;;;23.83;13.03;;;-1.10;99.90;;;;;;5016738;28;20214;-45
2021/12/23 07:59:29;;;;;;;25.83;12.93;;;-1.10;99.90;;;;;;5022710;28;20647;-46
2021/12/23 08:01:55;;;;;;;36.80;16.03;;;-1.10;99.90;;;;;;5023141;28;20623;-47
2021/12/23 08:04:24;;;;;;;44.27;17.07;;;-1.10;99.90;;;;;;5020971;28;20719;-46
2021/12/23 08:06:55;;;;;;;33.03;14.87;;;-1.00;99.90;;;;;;5021897;28;20203;-45
2021/12/23 08:09:22;;;;;;;31.37;14.73;;;-1.00;99.90;;;;;;5020929;28;20202;-48
2021/12/23 08:11:48;;;;;;;33.83;15.40;;;-1.00;99.90;;;;;;5010088;28;20403;-47
2021/12/23 08:14:15;;;;;;;34.57;16.00;;;-1.00;99.90;;;;;;5029893;28;20668;-48
2021/12/23 08:16:42;;;;;;;28.90;14.83;;;-1.00;99.90;;;;;;5024100;28;20932;-45
2021/12/23 08:19:09;;;;;;;27.37;13.77;;;-1.00;99.90;;;;;;5035717;28;20516;-46
2021/12/23 08:21:38;;;;;;;25.87;13.33;;;-0.90;99.90;;;;;;5024679;28;20320;-46
2021/12/23 08:24:05;;;;;;;21.33;12.90;;;-0.90;99.90;;;;;;5026902;28;20200;-44
2021/12/23 08:26:39;;;;;;;25.03;13.33;;;-0.90;99.90;;;;;;5022429;28;20803;-47
2021/12/23 08:29:07;;;;;;;24.00;14.20;;;-0.90;99.90;;;;;;5019500;28;20205;-44
2021/12/23 08:31:34;;;;;;;25.67;14.07;;;-0.90;99.90;;;;;;5018794;28;20506;-46
2021/12/23 08:34:01;;;;;;;23.67;13.33;;;-0.80;99.90;;;;;;5026306;28;20286;-47
2021/12/23 08:36:27;;;;;;;20.77;13.10;;;-0.80;99.90;;;;;;5022292;28;20629;-49
2021/12/23 08:38:55;;;;;;;24.70;14.73;;;-0.80;99.90;;;;;;5031962;28;20249;-44
2021/12/23 08:41:22;;;;;;;23.47;14.07;;;-0.70;99.90;;;;;;5029784;28;20221;-46
2021/12/23 08:43:49;;;;;;;29.13;14.23;;;-0.80;99.90;;;;;;5014313;28;20204;-44
2021/12/23 08:46:15;;;;;;;20.60;13.40;;;-0.70;99.90;;;;;;5030791;28;20665;-46
2021/12/23 08:48:42;;;;;;;24.97;14.20;;;-0.70;99.90;;;;;;5023779;28;20207;-44
2021/12/23 08:51:09;;;;;;;22.57;13.50;;;-0.70;99.90;;;;;;5026242;28;20231;-46
2021/12/23 08:53:35;;;;;;;23.30;12.97;;;-0.70;99.90;;;;;;5022960;28;20196;-44
2021/12/23 08:56:05;;;;;;;24.17;14.73;;;-0.70;99.90;;;;;;5033528;28;20233;-45
2021/12/23 08:58:31;;;;;;;25.37;14.07;;;-0.70;99.90;;;;;;5010032;28;21133;-45
2021/12/23 09:00:58;;;;;;;20.90;13.90;;;-0.60;99.90;;;;;;5034303;28;20219;-46
2021/12/23 09:03:26;;;;;;;27.30;14.17;;;-0.60;99.90;;;;;;5033328;28;20207;-46
2021/12/23 09:05:53;;;;;;;24.97;13.33;;;-0.60;99.90;;;;;;5044322;28;20195;-44
2021/12/23 09:08:19;;;;;;;25.60;14.17;;;-0.60;99.90;;;;;;5042774;28;20200;-45
2021/12/23 09:10:46;;;;;;;22.37;13.67;;;-0.50;99.90;;;;;;5043181;28;20218;-45
2021/12/23 09:13:14;;;;;;;23.93;13.83;;;-0.50;99.90;;;;;;5044609;28;20199;-44
2021/12/23 09:15:40;;;;;;;24.23;13.70;;;-0.60;99.90;;;;;;5020372;28;20222;-44
2021/12/23 09:18:07;;;;;;;26.23;13.50;;;-0.50;99.90;;;;;;5030248;28;20209;-43
2021/12/23 09:20:33;;;;;;;25.83;14.43;;;-0.50;99.90;;;;;;5021993;28;20196;-47
2021/12/23 09:23:01;;;;;;;22.40;13.43;;;-0.50;99.90;;;;;;5028038;28;20674;-47
2021/12/23 09:25:32;;;;;;;22.67;13.53;;;-0.60;99.90;;;;;;5028043;28;20207;-46
2021/12/23 09:28:07;;;;;;;23.50;13.43;;;-0.50;99.90;;;;;;5025631;28;20721;-49
2021/12/23 09:33:20;;;;;;;25.67;14.40;;;-0.50;99.90;;;;;;5021806;28;20224;-45
2021/12/23 09:35:47;;;;;;;25.13;14.80;;;-0.50;99.90;;;;;;5023762;28;20224;-44
2021/12/23 09:38:15;;;;;;;30.07;15.53;;;-0.50;99.90;;;;;;5024969;28;20629;-46
2021/12/23 09:40:43;;;;;;;23.30;14.27;;;-0.50;99.90;;;;;;5022711;28;20223;-45
2021/12/23 09:43:12;;;;;;;25.77;13.43;;;-0.50;99.90;;;;;;5025609;28;20204;-44
2021/12/23 09:45:42;;;;;;;26.30;14.47;;;-0.40;99.90;;;;;;5014452;28;20192;-44
2021/12/23 09:48:09;;;;;;;21.33;13.30;;;-0.40;99.90;;;;;;5021506;28;20219;-46
2021/12/23 09:50:40;;;;;;;25.33;13.03;;;-0.40;99.90;;;;;;5039959;28;20196;-45
2021/12/23 09:53:07;;;;;;;23.70;13.97;;;-0.40;99.90;;;;;;5031645;28;20201;-44
2021/12/23 09:55:37;;;;;;;25.33;13.93;;;-0.40;99.90;;;;;;5025649;28;20940;-49
2021/12/23 09:58:05;;;;;;;24.17;14.03;;;-0.30;99.90;;;;;;5025085;28;20200;-48
2021/12/23 10:00:35;;;;;;;28.27;13.97;;;-0.30;99.90;;;;;;5008528;28;20211;-50
2021/12/23 10:03:03;;;;;;;23.10;13.97;;;-0.30;99.90;;;;;;5034804;28;20196;-47
2021/12/23 10:05:33;;;;;;;23.67;13.23;;;-0.20;99.90;;;;;;5021248;28;20201;-49
2021/12/23 10:08:01;;;;;;;26.33;14.77;;;-0.20;99.90;;;;;;5024919;28;20200;-47
2021/12/23 10:10:33;;;;;;;22.20;13.93;;;-0.20;99.90;;;;;;5021331;28;20263;-46
2021/12/23 10:26:49;;;;;;;24.23;14.33;;;-0.20;99.90;;;;;;5024873;28;20303;-44
2021/12/23 10:38:29;;;;;;;22.20;13.73;;;-0.10;99.90;;;;;;5020124;28;20209;-44
2021/12/23 10:41:00;;;;;;;23.97;13.77;;;-0.10;99.90;;;;;;5024408;28;20229;-44
2021/12/23 10:43:30;;;;;;;24.00;14.00;;;-0.20;99.90;;;;;;5021111;28;20656;-46
2021/12/23 10:46:00;;;;;;;22.07;14.20;;;-0.10;99.90;;;;;;5024205;28;20205;-47
2021/12/23 10:48:31;;;;;;;27.37;14.07;;;-0.10;99.90;;;;;;5010580;28;20201;-44
2021/12/23 10:51:04;;;;;;;20.00;11.93;;;-0.10;99.90;;;;;;5025885;28;20311;-47
2021/12/23 10:53:47;;;;;;;28.23;14.70;;;-0.10;99.90;;;;;;5024258;28;20204;-44
2021/12/23 10:59:06;;;;;;;24.27;13.50;;;-0.10;99.90;;;;;;5024257;28;20218;-44
2021/12/23 11:01:36;;;;;;;23.10;14.70;;;-0.10;99.90;;;;;;5020077;28;20309;-46
2021/12/23 11:04:04;;;;;;;24.57;13.73;;;-0.10;99.90;;;;;;5016456;28;20208;-47
2021/12/23 11:06:38;;;;;;;21.03;13.10;;;0.00;99.90;;;;;;5026068;28;20197;-48
2021/12/23 11:09:31;;;;;;;21.33;12.93;;;0.00;99.90;;;;;;5024020;28;20236;-46
2021/12/23 11:37:55;;;;;;;24.40;13.77;;;0.30;99.90;;;;;;5030272;28;20219;-45
2021/12/23 11:45:52;;;;;;;19.70;12.63;;;0.40;99.90;;;;;;5022715;28;20770;-45
2021/12/23 11:48:19;;;;;;;24.67;14.70;;;0.50;99.90;;;;;;5022252;28;20245;-48
2021/12/23 11:50:55;;;;;;;26.70;13.90;;;0.50;99.90;;;;;;5015256;28;20236;-49
2021/12/23 11:53:24;;;;;;;20.47;12.90;;;0.50;99.90;;;;;;5027064;28;20237;-46
2021/12/23 11:55:53;;;;;;;21.90;13.13;;;0.50;99.90;;;;;;5037118;28;20212;-45
2021/12/23 11:58:23;;;;;;;20.20;13.17;;;0.60;99.90;;;;;;5044782;28;20231;-46
2021/12/23 12:01:02;;;;;;;21.00;14.27;;;0.60;99.90;;;;;;5045534;28;20582;-47
2021/12/23 12:03:29;;;;;;;20.63;13.30;;;0.60;99.90;;;;;;5042598;28;20220;-46
2021/12/23 12:06:13;;;;;;;21.13;13.50;;;0.60;99.90;;;;;;5046252;28;20650;-48
2021/12/23 12:08:40;;;;;;;19.77;12.80;;;0.70;99.90;;;;;;5021738;28;20237;-44
2021/12/23 12:11:17;;;;;;;20.43;12.90;;;0.70;99.90;;;;;;5031987;28;20222;-45
2021/12/23 12:13:43;;;;;;;21.40;13.50;;;0.70;99.90;;;;;;5035415;28;20204;-46
2021/12/23 12:16:26;;;;;;;24.23;13.57;;;0.70;99.90;;;;;;5026782;28;20229;-48
2021/12/23 12:18:52;;;;;;;22.93;13.13;;;0.70;99.90;;;;;;5026644;28;20209;-46
2021/12/23 12:21:24;;;;;;;22.03;13.87;;;0.80;99.90;;;;;;5024871;28;20223;-47
2021/12/23 12:24:07;;;;;;;19.97;13.57;;;0.80;99.90;;;;;;5018638;28;20225;-47
2021/12/23 12:26:37;;;;;;;18.80;12.50;;;0.80;99.90;;;;;;5024750;28;20206;-48
2021/12/23 12:29:05;;;;;;;23.63;13.60;;;0.80;99.90;;;;;;5029504;28;20207;-48
2021/12/23 12:31:40;;;;;;;20.50;12.80;;;0.80;99.90;;;;;;5023076;28;21004;-45
2021/12/23 12:34:08;;;;;;;20.77;13.63;;;0.80;99.90;;;;;;5026862;28;20206;-45
2021/12/23 12:36:44;;;;;;;19.13;12.57;;;0.90;99.90;;;;;;5022311;28;20253;-46
2021/12/23 12:39:24;;;;;;;22.33;13.50;;;0.90;99.90;;;;;;5020367;28;20210;-47
2021/12/23 12:42:01;;;;;;;20.80;12.83;;;0.90;99.90;;;;;;5032952;28;20258;-45
2021/12/23 12:44:43;;;;;;;25.03;13.27;;;0.90;99.90;;;;;;5028780;28;20280;-45
2021/12/23 12:47:15;;;;;;;19.43;13.37;;;0.90;99.90;;;;;;5028908;28;20200;-45
2021/12/23 12:49:47;;;;;;;20.83;12.30;;;0.90;99.90;;;;;;5023841;28;20280;-47
2021/12/23 12:52:18;;;;;;;21.77;12.80;;;1.00;99.90;;;;;;5024463;28;20266;-46
2021/12/23 12:54:55;;;;;;;24.87;15.00;;;1.00;99.90;;;;;;5017789;28;20206;-48
2021/12/23 12:57:25;;;;;;;19.83;11.77;;;1.00;99.90;;;;;;5020590;28;20211;-50
2021/12/23 12:59:53;;;;;;;26.53;14.90;;;1.10;99.90;;;;;;5033023;28;20224;-46
2021/12/23 13:02:27;;;;;;;23.90;13.30;;;1.10;99.90;;;;;;5024273;28;20223;-48
2021/12/23 13:04:59;;;;;;;24.53;12.97;;;1.10;99.90;;;;;;5029289;28;20193;-46
2021/12/23 13:07:58;;;;;;;24.70;14.23;;;1.10;99.90;;;;;;5031103;28;20963;-47
2021/12/23 13:10:34;;;;;;;32.03;16.00;;;1.10;99.90;;;;;;5006981;28;20302;-46
2021/12/23 13:13:23;;;;;;;23.83;13.40;;;1.10;99.90;;;;;;5025842;28;20317;-47
2021/12/23 13:16:14;;;;;;;21.07;13.80;;;1.10;99.90;;;;;;5024388;28;20247;-45
2021/12/23 13:18:41;;;;;;;31.13;14.17;;;1.10;99.90;;;;;;5035766;28;20432;-45
2021/12/23 13:21:09;;;;;;;48.17;17.00;;;1.00;99.90;;;;;;5036017;28;20222;-46
2021/12/23 13:23:40;;;;;;;31.03;15.83;;;1.00;99.90;;;;;;5012589;28;21838;-48
2021/12/23 13:26:09;;;;;;;35.60;16.60;;;0.90;99.90;;;;;;5028077;28;20206;-45
2021/12/23 13:28:41;;;;;;;31.80;16.60;;;0.90;99.90;;;;;;5024449;28;20197;-47
2021/12/23 13:31:10;;;;;;;43.97;17.97;;;0.80;99.90;;;;;;5025748;28;20223;-46
2021/12/23 13:33:46;;;;;;;43.40;18.07;;;0.80;99.90;;;;;;5022099;28;20198;-48
2021/12/23 13:36:18;;;;;;;32.13;17.50;;;0.70;99.90;;;;;;5024968;28;20229;-46
2021/12/23 13:38:45;;;;;;;29.23;15.97;;;0.70;99.90;;;;;;5030656;28;20197;-47